createdAt,value
2023-01-27T00:02:45.139Z,-0.65
2023-01-27T00:06:49.645Z,-0.54
2023-01-27T00:11:20.094Z,-0.73
2023-01-27T00:15:26.034Z,-0.52
2023-01-27T00:19:29.964Z,-0.70
2023-01-27T00:23:51.225Z,-0.69
2023-01-27T00:27:56.173Z,-0.40
2023-01-27T00:32:18.733Z,-0.41
2023-01-27T00:36:25.119Z,-0.58
2023-01-27T00:40:28.891Z,-0.53
2023-01-27T00:44:37.945Z,-0.53
2023-01-27T00:48:43.231Z,-0.96
2023-01-27T00:52:47.515Z,-0.67
2023-01-27T00:56:52.022Z,-0.68
2023-01-27T01:00:55.475Z,-0.44
2023-01-27T01:05:00.335Z,-0.63
2023-01-27T01:09:04.109Z,-0.61
2023-01-27T01:13:08.262Z,-0.49
2023-01-27T01:17:11.562Z,-0.53
2023-01-27T01:21:17.158Z,-0.54
2023-01-27T01:25:20.628Z,-0.69
2023-01-27T01:29:24.071Z,-0.53
2023-01-27T01:33:27.448Z,-0.50
2023-01-27T01:37:41.331Z,-0.50
2023-01-27T01:41:44.782Z,-0.29
2023-01-27T01:45:54.025Z,-0.51
2023-01-27T01:49:57.375Z,-0.48
2023-01-27T01:54:04.269Z,-0.68
2023-01-27T01:58:08.624Z,-0.47
2023-01-27T02:02:15.410Z,-0.49
2023-01-27T02:06:19.127Z,-0.43
2023-01-27T02:10:23.900Z,-0.42
2023-01-27T02:14:27.476Z,-0.44
2023-01-27T02:18:31.362Z,-0.34
2023-01-27T02:22:39.822Z,-0.36
2023-01-27T02:26:45.851Z,-0.34
2023-01-27T02:30:49.274Z,-0.38
2023-01-27T02:34:52.813Z,-0.35
2023-01-27T02:38:58.148Z,-0.20
2023-01-27T02:43:05.193Z,-0.32
2023-01-27T02:47:08.605Z,-0.29
2023-01-27T02:51:12.521Z,-0.43
2023-01-27T02:55:15.873Z,-0.26
2023-01-27T02:59:21.081Z,-0.30
2023-01-27T03:03:24.416Z,-0.18
2023-01-27T03:07:28.307Z,-0.20
2023-01-27T03:11:49.078Z,-0.18
2023-01-27T03:16:13.428Z,-0.26
2023-01-27T03:20:18.173Z,-0.16
2023-01-27T03:24:22.036Z,-0.24
2023-01-27T03:28:25.557Z,-0.14
2023-01-27T03:32:33.593Z,-0.21
2023-01-27T03:36:54.140Z,-0.09
2023-01-27T03:41:15.100Z,-0.12
2023-01-27T03:45:36.007Z,-0.16
2023-01-27T03:49:40.639Z,-0.17
2023-01-27T03:53:43.666Z,-0.03
2023-01-27T03:57:47.288Z,-0.27
2023-01-27T04:01:50.637Z,-0.05
2023-01-27T04:06:12.570Z,-0.11
2023-01-27T04:10:15.677Z,-0.18
2023-01-27T04:14:18.948Z,-0.11
2023-01-27T04:18:22.156Z,-0.21
2023-01-27T04:22:26.814Z,-0.16
2023-01-27T04:26:33.469Z,-0.20
2023-01-27T04:30:36.954Z,-0.23
2023-01-27T04:34:41.183Z,-0.07
2023-01-27T04:38:46.238Z,-0.10
2023-01-27T04:42:49.340Z,0.00
2023-01-27T04:46:54.240Z,-0.13
2023-01-27T04:50:57.352Z,0.00
2023-01-27T04:55:02.152Z,0.03
2023-01-27T04:59:07.524Z,0.00
2023-01-27T05:03:11.555Z,-0.13
2023-01-27T05:07:14.807Z,-0.25
2023-01-27T05:11:20.233Z,-0.11
2023-01-27T05:15:24.611Z,-0.12
2023-01-27T05:19:28.102Z,-0.06
2023-01-27T05:23:37.329Z,-0.18
2023-01-27T05:27:42.119Z,-0.02
2023-01-27T05:31:45.512Z,-0.17
2023-01-27T05:35:48.787Z,-0.07
2023-01-27T05:39:52.160Z,-0.08
2023-01-27T05:43:57.851Z,-0.19
2023-01-27T05:48:01.077Z,-0.10
2023-01-27T05:52:04.407Z,0.00
2023-01-27T05:56:10.718Z,-0.05
2023-01-27T06:00:16.947Z,-0.08
2023-01-27T06:04:23.116Z,-0.22
2023-01-27T06:08:27.487Z,-0.01
2023-01-27T06:12:30.784Z,-0.10
2023-01-27T06:16:35.671Z,-0.07
2023-01-27T06:20:40.030Z,-0.06
2023-01-27T06:24:43.242Z,0.00
2023-01-27T06:28:46.636Z,-0.08
2023-01-27T06:32:51.342Z,-0.02
2023-01-27T06:36:54.516Z,0.09
2023-01-27T06:40:57.583Z,0.15
2023-01-27T06:45:01.571Z,0.12
2023-01-27T06:49:05.870Z,0.14
2023-01-27T06:53:09.238Z,0.11
2023-01-27T06:57:16.664Z,0.04
2023-01-27T07:01:19.604Z,0.04
2023-01-27T07:05:26.390Z,0.19
2023-01-27T07:09:32.144Z,0.09
2023-01-27T07:13:36.894Z,0.20
2023-01-27T07:17:44.047Z,0.03
2023-01-27T07:21:48.881Z,0.16
2023-01-27T07:25:51.928Z,0.32
2023-01-27T07:29:58.418Z,0.28
2023-01-27T07:34:05.176Z,0.23
2023-01-27T07:38:13.679Z,0.13
2023-01-27T07:42:17.572Z,0.28
2023-01-27T07:46:22.647Z,0.28
2023-01-27T07:50:31.470Z,0.29
2023-01-27T07:54:38.018Z,0.38
2023-01-27T07:58:44.788Z,0.23
2023-01-27T08:02:54.634Z,0.57
2023-01-27T08:06:58.048Z,0.50
2023-01-27T08:11:04.471Z,0.54
2023-01-27T08:15:10.168Z,0.46
2023-01-27T08:19:13.683Z,0.49
2023-01-27T08:23:18.996Z,0.36
2023-01-27T08:27:23.595Z,0.43
2023-01-27T08:31:26.606Z,0.47
2023-01-27T08:35:29.512Z,0.42
2023-01-27T08:39:32.546Z,0.34
2023-01-27T08:43:37.197Z,0.52
2023-01-27T08:47:39.993Z,0.52
2023-01-27T08:51:43.398Z,0.68
2023-01-27T08:55:46.531Z,0.64
2023-01-27T08:59:50.746Z,1.04
2023-01-27T09:03:53.644Z,1.14
2023-01-27T09:07:56.428Z,1.18
2023-01-27T09:11:59.641Z,1.24
2023-01-27T09:16:04.487Z,1.44
2023-01-27T09:20:08.445Z,1.39
2023-01-27T09:24:11.370Z,1.33
2023-01-27T09:28:17.867Z,1.56
2023-01-27T09:32:22.099Z,1.60
2023-01-27T09:36:25.038Z,1.66
2023-01-27T09:40:31.884Z,1.21
2023-01-27T09:44:49.948Z,1.80
2023-01-27T09:49:04.918Z,1.99
2023-01-27T09:53:23.466Z,1.93
2023-01-27T09:57:35.593Z,1.96
2023-01-27T10:01:48.201Z,2.09
2023-01-27T10:06:09.474Z,2.03
2023-01-27T10:10:25.701Z,1.96
2023-01-27T10:14:36.878Z,1.82
2023-01-27T10:18:52.083Z,1.44
2023-01-27T10:23:08.215Z,1.87
2023-01-27T10:27:16.776Z,1.90
2023-01-27T10:31:27.312Z,2.01
2023-01-27T10:35:34.493Z,2.21
2023-01-27T10:39:46.992Z,2.27
2023-01-27T10:43:58.834Z,2.18
2023-01-27T10:48:12.320Z,2.27
2023-01-27T10:52:18.719Z,2.34
2023-01-27T10:56:34.037Z,2.43
2023-01-27T11:05:18.903Z,2.51
2023-01-27T11:09:37.388Z,2.71
2023-01-27T11:13:46.653Z,2.57
2023-01-27T11:18:22.632Z,2.61
2023-01-27T11:22:34.333Z,2.48
2023-01-27T11:26:44.869Z,2.32
2023-01-27T11:30:50.754Z,2.68
2023-01-27T11:35:04.151Z,2.79
2023-01-27T11:39:14.756Z,3.05
2023-01-27T11:43:19.908Z,3.15
2023-01-27T11:47:27.573Z,3.02
2023-01-27T11:51:39.664Z,2.90
2023-01-27T11:55:46.270Z,3.00
2023-01-27T11:59:51.092Z,2.69
2023-01-27T12:04:12.659Z,2.69
2023-01-27T12:08:46.074Z,2.53
2023-01-27T12:12:49.937Z,2.56
2023-01-27T12:16:54.048Z,2.66
2023-01-27T12:21:02.420Z,2.64
2023-01-27T12:25:24.660Z,2.56
2023-01-27T12:29:30.691Z,2.73
2023-01-27T12:33:46.194Z,2.72
2023-01-27T12:37:52.076Z,2.75
2023-01-27T12:41:58.752Z,2.67
2023-01-27T12:46:21.757Z,2.80
2023-01-27T12:50:37.583Z,2.80
2023-01-27T12:54:44.035Z,2.84
2023-01-27T12:58:52.267Z,2.73
2023-01-27T13:03:25.748Z,2.65
2023-01-27T13:07:34.806Z,2.83
2023-01-27T13:11:45.982Z,2.69
2023-01-27T13:16:04.309Z,3.08
2023-01-27T13:20:20.518Z,3.21
2023-01-27T13:24:36.790Z,3.24
2023-01-27T13:28:52.665Z,3.05
2023-01-27T13:33:02.437Z,3.12
2023-01-27T13:37:10.121Z,3.05
2023-01-27T13:41:22.523Z,3.10
2023-01-27T13:45:36.947Z,3.11
2023-01-27T13:49:44.884Z,2.91
2023-01-27T13:53:49.845Z,2.97
2023-01-27T13:58:01.270Z,2.98
2023-01-27T14:02:26.826Z,2.76
2023-01-27T14:06:49.485Z,2.97
2023-01-27T14:11:04.867Z,2.79
2023-01-27T14:15:24.472Z,2.43
2023-01-27T14:19:37.553Z,2.37
2023-01-27T14:23:52.663Z,2.11
2023-01-27T14:28:02.929Z,2.25
2023-01-27T14:32:27.381Z,2.18
2023-01-27T14:36:36.635Z,2.12
2023-01-27T14:40:48.495Z,2.28
2023-01-27T14:45:03.409Z,2.27
2023-01-27T14:49:12.547Z,2.23
2023-01-27T14:53:37.550Z,2.32
2023-01-27T14:57:47.802Z,2.32
2023-01-27T15:01:59.040Z,2.29
2023-01-27T15:06:05.071Z,2.27
2023-01-27T15:10:22.026Z,2.12
2023-01-27T15:14:54.601Z,2.20
2023-01-27T15:19:18.720Z,2.29
2023-01-27T15:24:02.730Z,2.25
2023-01-27T15:28:12.714Z,2.30
2023-01-27T15:32:33.004Z,2.19
2023-01-27T15:36:39.113Z,2.18
2023-01-27T15:41:02.174Z,2.15
2023-01-27T15:45:13.716Z,2.15
2023-01-27T15:49:29.712Z,2.09
2023-01-27T15:53:34.847Z,2.09
2023-01-27T15:57:42.353Z,1.99
2023-01-27T16:01:49.700Z,1.93
2023-01-27T16:05:57.507Z,1.73
2023-01-27T16:10:02.385Z,1.87
2023-01-27T16:14:39.890Z,1.75
2023-01-27T16:18:46.305Z,1.76
2023-01-27T16:22:53.563Z,1.80
2023-01-27T16:27:05.886Z,1.76
2023-01-27T16:31:16.224Z,1.40
2023-01-27T16:35:22.002Z,1.57
2023-01-27T16:39:30.904Z,1.54
2023-01-27T16:43:41.714Z,1.51
2023-01-27T16:47:48.783Z,1.55
2023-01-27T16:51:57.510Z,1.60
2023-01-27T16:56:03.036Z,1.56
2023-01-27T17:00:13.028Z,1.68
2023-01-27T17:04:20.728Z,1.67
2023-01-27T17:08:35.587Z,1.71
2023-01-27T17:12:43.666Z,1.58
2023-01-27T17:16:48.532Z,1.24
2023-01-27T17:20:52.436Z,1.38
2023-01-27T17:25:04.822Z,1.48
2023-01-27T17:29:08.601Z,1.42
2023-01-27T17:33:18.183Z,1.34
2023-01-27T17:37:25.939Z,1.31
2023-01-27T17:41:35.915Z,1.35
2023-01-27T17:45:40.578Z,1.36
2023-01-27T17:49:49.619Z,1.35
2023-01-27T17:54:05.411Z,1.30
2023-01-27T17:58:13.776Z,1.32
2023-01-27T18:02:26.981Z,1.37
2023-01-27T18:06:30.864Z,1.29
2023-01-27T18:10:39.500Z,1.25
2023-01-27T18:14:44.482Z,1.24
2023-01-27T18:18:49.824Z,1.38
2023-01-27T18:22:53.365Z,1.35
2023-01-27T18:26:56.973Z,1.31
2023-01-27T18:31:03.177Z,1.34
2023-01-27T18:35:24.258Z,1.28
2023-01-27T18:39:37.201Z,1.38
2023-01-27T18:43:41.503Z,1.40
2023-01-27T18:47:46.712Z,1.46
2023-01-27T18:51:50.772Z,1.45
2023-01-27T18:55:54.828Z,1.42
2023-01-27T18:59:59.533Z,1.40
2023-01-27T19:04:04.662Z,1.29
2023-01-27T19:08:09.107Z,1.33
2023-01-27T19:12:12.919Z,1.40
2023-01-27T19:16:18.782Z,1.42
2023-01-27T19:20:25.560Z,1.57
2023-01-27T19:24:29.184Z,1.48
2023-01-27T19:28:34.369Z,1.51
2023-01-27T19:32:38.405Z,1.57
2023-01-27T19:36:48.178Z,1.61
2023-01-27T19:40:51.949Z,1.61
2023-01-27T19:44:55.446Z,1.66
2023-01-27T19:48:58.941Z,1.67
2023-01-27T19:53:03.719Z,1.65
2023-01-27T19:57:07.503Z,1.65
2023-01-27T20:01:11.106Z,1.66
2023-01-27T20:05:15.327Z,1.73
2023-01-27T20:09:20.503Z,1.75
2023-01-27T20:13:24.377Z,1.70
2023-01-27T20:17:28.387Z,1.67
2023-01-27T20:21:39.224Z,1.67
2023-01-27T20:25:44.562Z,1.66
2023-01-27T20:29:47.970Z,1.68
2023-01-27T20:33:51.748Z,1.65
2023-01-27T20:37:55.750Z,1.60
2023-01-27T20:42:00.852Z,1.60
2023-01-27T20:46:06.411Z,1.71
2023-01-27T20:50:11.875Z,1.54
2023-01-27T20:54:15.306Z,1.48
2023-01-27T20:58:20.175Z,1.33
2023-01-27T21:02:23.661Z,1.28
2023-01-27T21:06:27.723Z,1.36
2023-01-27T21:10:31.340Z,1.39
2023-01-27T21:14:36.294Z,1.37
2023-01-27T21:18:40.298Z,1.49
2023-01-27T21:22:46.387Z,1.68
2023-01-27T21:26:52.230Z,1.70
2023-01-27T21:30:57.586Z,1.68
2023-01-27T21:35:01.851Z,1.69
2023-01-27T21:39:05.716Z,1.68
2023-01-27T21:43:28.407Z,1.58
2023-01-27T21:47:33.823Z,1.71
2023-01-27T21:51:40.724Z,1.72
2023-01-27T21:55:44.344Z,1.71
2023-01-27T21:59:47.961Z,1.64
2023-01-27T22:03:53.294Z,1.80
2023-01-27T22:07:57.054Z,1.68
2023-01-27T22:12:00.674Z,1.74
2023-01-27T22:16:07.809Z,1.68
2023-01-27T22:20:15.527Z,1.57
2023-01-27T22:24:19.013Z,1.61
2023-01-27T22:28:24.284Z,1.69
2023-01-27T22:32:27.958Z,1.66
2023-01-27T22:36:32.960Z,1.79
2023-01-27T22:40:36.702Z,1.64
2023-01-27T22:44:40.344Z,1.62
2023-01-27T22:48:44.408Z,1.61
2023-01-27T22:52:55.071Z,1.66
2023-01-27T22:57:01.075Z,1.56
2023-01-27T23:01:07.753Z,1.43
2023-01-27T23:05:11.899Z,1.65
2023-01-27T23:09:17.759Z,1.58
2023-01-27T23:13:24.180Z,1.57
2023-01-27T23:17:58.861Z,1.86
2023-01-27T23:22:01.109Z,1.48
2023-01-27T23:26:12.336Z,1.44
2023-01-27T23:30:17.069Z,1.35
2023-01-27T23:34:21.461Z,1.30
2023-01-27T23:38:36.059Z,1.33
2023-01-27T23:42:42.421Z,1.40
2023-01-27T23:46:48.823Z,1.42
2023-01-27T23:50:52.970Z,1.33
2023-01-27T23:54:57.587Z,1.28
2023-01-27T23:59:03.123Z,1.44
